createdAt,value
2019-02-18T00:00:48.074Z,22.70
2019-02-18T00:03:19.596Z,22.70
2019-02-18T00:05:51.196Z,22.70
2019-02-18T00:08:22.514Z,22.70
2019-02-18T00:10:53.995Z,22.70
2019-02-18T00:13:25.175Z,22.70
2019-02-18T00:15:56.614Z,22.70
2019-02-18T00:18:27.645Z,22.70
2019-02-18T00:20:58.640Z,22.70
2019-02-18T00:23:29.506Z,22.70
2019-02-18T00:26:00.692Z,22.70
2019-02-18T00:28:31.490Z,22.70
2019-02-18T00:31:02.144Z,22.70
2019-02-18T00:33:33.079Z,22.70
2019-02-18T00:36:04.002Z,22.70
2019-02-18T00:38:35.684Z,22.70
2019-02-18T00:41:07.015Z,22.70
2019-02-18T00:43:38.766Z,22.70
2019-02-18T00:46:09.916Z,22.70
2019-02-18T00:48:41.503Z,22.70
2019-02-18T00:51:12.715Z,22.70
2019-02-18T00:53:44.286Z,22.70
2019-02-18T00:56:15.317Z,22.70
2019-02-18T00:58:45.961Z,22.70
2019-02-18T01:01:16.838Z,22.70
2019-02-18T01:03:48.014Z,22.70
2019-02-18T01:06:19.158Z,22.70
2019-02-18T01:08:49.926Z,22.70
2019-02-18T01:11:20.798Z,22.70
2019-02-18T01:13:51.663Z,22.70
2019-02-18T01:16:23.018Z,22.70
2019-02-18T01:18:54.466Z,22.70
2019-02-18T01:21:26.226Z,22.70
2019-02-18T01:23:57.668Z,22.70
2019-02-18T01:26:29.234Z,22.70
2019-02-18T01:29:00.638Z,22.70
2019-02-18T01:31:32.318Z,22.70
2019-02-18T01:34:03.315Z,22.70
2019-02-18T01:36:33.998Z,22.70
2019-02-18T01:39:05.211Z,22.70
2019-02-18T01:41:36.130Z,22.70
2019-02-18T01:44:07.082Z,22.70
2019-02-18T01:46:37.889Z,22.70
2019-02-18T01:49:08.562Z,22.70
2019-02-18T01:51:39.665Z,22.70
2019-02-18T01:54:13.735Z,22.70
2019-02-18T01:56:45.309Z,22.70
2019-02-18T01:59:16.643Z,22.60
2019-02-18T02:01:47.818Z,22.60
2019-02-18T02:04:19.106Z,22.70
2019-02-18T02:06:50.441Z,22.60
2019-02-18T02:09:21.537Z,22.70
2019-02-18T02:11:52.318Z,22.60
2019-02-18T02:14:23.646Z,22.60
2019-02-18T02:16:54.353Z,22.70
2019-02-18T02:19:25.114Z,22.60
2019-02-18T02:21:56.118Z,22.60
2019-02-18T02:24:26.991Z,22.60
2019-02-18T02:26:58.129Z,22.60
2019-02-18T02:29:29.306Z,22.60
2019-02-18T02:32:00.189Z,22.60
2019-02-18T02:34:31.547Z,22.60
2019-02-18T02:37:03.104Z,22.60
2019-02-18T02:39:34.655Z,22.60
2019-02-18T02:42:05.956Z,22.70
2019-02-18T02:44:37.584Z,22.60
2019-02-18T02:47:09.211Z,22.60
2019-02-18T02:49:40.788Z,22.60
2019-02-18T02:52:11.638Z,22.60
2019-02-18T02:54:42.705Z,22.60
2019-02-18T02:57:13.599Z,22.60
2019-02-18T02:59:44.524Z,22.60
2019-02-18T03:02:15.763Z,22.60
2019-02-18T03:04:46.554Z,22.60
2019-02-18T03:07:17.654Z,22.60
2019-02-18T03:09:48.384Z,22.60
2019-02-18T03:12:19.689Z,22.60
2019-02-18T03:14:50.937Z,22.60
2019-02-18T03:17:22.320Z,22.60
2019-02-18T03:19:53.630Z,22.60
2019-02-18T03:22:24.946Z,22.60
2019-02-18T03:25:26.294Z,22.60
2019-02-18T03:28:25.142Z,22.60
2019-02-18T03:31:01.992Z,22.60
2019-02-18T03:33:43.685Z,22.60
2019-02-18T03:36:14.454Z,22.60
2019-02-18T03:38:45.238Z,22.60
2019-02-18T03:41:16.698Z,22.60
2019-02-18T03:43:47.881Z,22.60
2019-02-18T03:46:19.769Z,22.60
2019-02-18T03:48:51.021Z,22.60
2019-02-18T03:51:22.642Z,22.60
2019-02-18T03:53:54.196Z,22.60
2019-02-18T03:56:25.588Z,22.60
2019-02-18T03:58:56.962Z,22.60
2019-02-18T04:01:28.273Z,22.60
2019-02-18T04:03:59.397Z,22.60
2019-02-18T04:06:30.508Z,22.60
2019-02-18T04:09:01.486Z,22.60
2019-02-18T04:11:32.576Z,22.60
2019-02-18T04:14:03.269Z,22.60
2019-02-18T04:16:34.274Z,22.60
2019-02-18T04:19:05.403Z,22.60
2019-02-18T04:21:36.688Z,22.60
2019-02-18T04:24:07.941Z,22.60
2019-02-18T04:26:43.272Z,22.60
2019-02-18T04:29:15.021Z,22.60
2019-02-18T04:31:46.404Z,22.60
2019-02-18T04:34:17.525Z,22.60
2019-02-18T04:36:48.308Z,22.60
2019-02-18T04:39:19.081Z,22.60
2019-02-18T04:41:49.953Z,22.60
2019-02-18T04:44:20.997Z,22.60
2019-02-18T04:46:52.293Z,22.60
2019-02-18T04:49:23.262Z,22.60
2019-02-18T04:51:54.418Z,22.60
2019-02-18T04:54:25.663Z,22.60
2019-02-18T04:56:57.307Z,22.60
2019-02-18T04:59:28.849Z,22.60
2019-02-18T05:02:00.268Z,22.60
2019-02-18T05:04:31.540Z,22.60
2019-02-18T05:07:03.010Z,22.60
2019-02-18T05:09:34.725Z,22.60
2019-02-18T05:12:05.642Z,22.60
2019-02-18T05:14:36.476Z,22.60
2019-02-18T05:17:07.792Z,22.60
2019-02-18T05:19:38.859Z,22.60
2019-02-18T05:22:10.048Z,22.60
2019-02-18T05:24:41.220Z,22.60
2019-02-18T05:27:12.252Z,22.60
2019-02-18T05:29:43.959Z,22.60
2019-02-18T05:32:15.479Z,22.60
2019-02-18T05:34:46.757Z,22.60
2019-02-18T05:37:18.064Z,22.60
2019-02-18T05:39:49.421Z,22.60
2019-02-18T05:42:21.070Z,22.60
2019-02-18T05:44:52.731Z,22.60
2019-02-18T05:47:23.811Z,22.50
2019-02-18T05:49:55.117Z,22.50
2019-02-18T05:52:26.533Z,22.50
2019-02-18T05:54:57.651Z,22.50
2019-02-18T05:57:28.437Z,22.50
2019-02-18T05:59:59.461Z,22.40
2019-02-18T06:02:30.830Z,22.40
2019-02-18T06:05:02.133Z,22.40
2019-02-18T06:07:33.562Z,22.40
2019-02-18T06:10:05.755Z,22.40
2019-02-18T06:12:37.238Z,22.40
2019-02-18T06:15:09.796Z,22.40
2019-02-18T06:17:40.890Z,22.40
2019-02-18T06:20:12.180Z,22.50
2019-02-18T06:22:43.450Z,22.50
2019-02-18T06:25:14.400Z,22.50
2019-02-18T06:27:45.218Z,22.60
2019-02-18T06:30:16.374Z,22.60
2019-02-18T06:32:47.584Z,22.60
2019-02-18T06:35:19.824Z,22.70
2019-02-18T06:37:51.359Z,22.60
2019-02-18T06:40:22.777Z,22.70
2019-02-18T06:42:54.269Z,22.70
2019-02-18T06:45:34.616Z,22.70
2019-02-18T06:48:22.134Z,22.70
2019-02-18T06:50:53.573Z,22.70
2019-02-18T06:53:24.336Z,22.70
2019-02-18T06:55:55.368Z,22.70
2019-02-18T06:58:35.896Z,22.80
2019-02-18T07:35:00.818Z,14.70
2019-02-18T07:37:32.589Z,15.50
2019-02-18T07:40:04.349Z,16.50
2019-02-18T07:42:36.575Z,17.30
2019-02-18T07:45:08.504Z,17.90
2019-02-18T07:47:40.256Z,18.30
2019-02-18T07:50:20.252Z,18.60
2019-02-18T07:52:45.077Z,18.80
2019-02-18T07:55:16.403Z,18.90
2019-02-18T07:57:48.284Z,19.00
2019-02-18T08:00:19.791Z,19.00
2019-02-18T08:02:51.685Z,19.00
2019-02-18T08:05:23.287Z,19.10
2019-02-18T08:07:55.050Z,19.20
2019-02-18T08:10:26.675Z,19.30
2019-02-18T08:12:59.136Z,19.50
2019-02-18T08:15:30.842Z,19.60
2019-02-18T08:18:02.574Z,19.80
2019-02-18T08:20:34.274Z,19.90
2019-02-18T08:23:05.915Z,20.00
2019-02-18T08:25:37.555Z,20.20
2019-02-18T08:28:09.710Z,20.20
2019-02-18T08:30:41.375Z,20.30
2019-02-18T08:33:12.556Z,20.40
2019-02-18T08:35:44.590Z,20.40
2019-02-18T08:38:16.289Z,20.50
2019-02-18T08:40:48.052Z,20.50
2019-02-18T08:43:19.907Z,20.50
2019-02-18T08:45:51.675Z,20.60
2019-02-18T08:48:24.179Z,20.60
2019-02-18T08:50:55.903Z,20.60
2019-02-18T08:53:28.815Z,20.60
2019-02-18T08:56:00.237Z,20.60
2019-02-18T08:58:32.121Z,20.70
2019-02-18T09:01:04.563Z,20.70
2019-02-18T09:03:36.319Z,20.70
2019-02-18T09:06:08.442Z,20.70
2019-02-18T09:08:40.279Z,20.70
2019-02-18T09:11:11.709Z,20.70
2019-02-18T09:13:43.486Z,20.70
2019-02-18T09:16:15.499Z,20.80
2019-02-18T09:18:47.459Z,20.80
2019-02-18T09:21:19.204Z,20.80
2019-02-18T09:24:09.957Z,20.80
2019-02-18T09:26:41.808Z,20.80
2019-02-18T09:29:13.271Z,20.80
2019-02-18T09:31:45.121Z,20.80
2019-02-18T09:34:16.675Z,20.80
2019-02-18T09:36:48.154Z,20.90
2019-02-18T09:39:30.576Z,20.90
2019-02-18T09:41:54.334Z,20.90
2019-02-18T09:44:26.063Z,20.90
2019-02-18T09:46:58.027Z,20.90
2019-02-18T09:49:29.694Z,20.90
2019-02-18T09:52:01.415Z,20.90
2019-02-18T09:54:33.497Z,20.90
2019-02-18T09:57:05.171Z,20.90
2019-02-18T09:59:36.771Z,20.90
2019-02-18T10:02:08.178Z,20.90
2019-02-18T10:04:40.047Z,20.90
2019-02-18T10:07:11.858Z,20.90
2019-02-18T10:09:43.758Z,21.00
2019-02-18T10:12:18.447Z,20.90
2019-02-18T10:14:48.562Z,21.00
2019-02-18T10:17:19.735Z,21.00
2019-02-18T10:19:51.375Z,21.00
2019-02-18T10:22:23.069Z,20.90
2019-02-18T10:55:29.259Z,20.20
2019-02-18T11:00:27.512Z,21.10
2019-02-18T11:02:59.278Z,19.50
2019-02-18T11:05:31.644Z,17.40
2019-02-18T11:08:03.764Z,15.80
2019-02-18T11:10:36.258Z,14.60
2019-02-18T11:13:08.444Z,13.60
2019-02-18T11:15:40.146Z,13.00
2019-02-18T11:18:11.942Z,12.70
2019-02-18T11:20:44.442Z,12.60
2019-02-18T11:23:16.392Z,12.50
2019-02-18T11:25:51.786Z,12.50
2019-02-18T11:28:32.557Z,12.50
2019-02-18T11:31:05.193Z,12.60
2019-02-18T11:33:37.274Z,12.50
2019-02-18T11:36:09.504Z,12.30
2019-02-18T11:38:41.414Z,12.10
2019-02-18T11:41:13.138Z,12.00
2019-02-18T11:43:45.088Z,11.90
2019-02-18T11:46:17.517Z,11.90
2019-02-18T11:48:49.636Z,12.00
2019-02-18T11:51:21.606Z,12.00
2019-02-18T11:53:53.687Z,12.10
2019-02-18T11:56:26.115Z,12.10
2019-02-18T11:58:58.258Z,12.00
2019-02-18T12:01:30.196Z,11.80
2019-02-18T12:04:01.925Z,11.60
2019-02-18T12:06:34.102Z,11.60
2019-02-18T12:09:06.450Z,11.50
2019-02-18T12:11:38.846Z,11.50
2019-02-18T12:14:10.833Z,11.40
2019-02-18T12:16:43.298Z,11.40
2019-02-18T12:19:15.440Z,11.40
2019-02-18T12:21:47.636Z,11.40
2019-02-18T12:24:19.906Z,11.40
2019-02-18T12:26:51.763Z,11.40
2019-02-18T12:29:26.442Z,11.50
2019-02-18T12:31:57.100Z,11.50
2019-02-18T12:34:28.972Z,11.50
2019-02-18T12:37:00.886Z,11.50
2019-02-18T12:39:32.684Z,11.50
2019-02-18T12:42:04.454Z,11.40
2019-02-18T12:44:36.294Z,11.40
2019-02-18T12:47:08.734Z,11.30
2019-02-18T12:49:41.174Z,11.30
2019-02-18T12:52:13.064Z,11.20
2019-02-18T12:54:44.860Z,11.20
2019-02-18T12:57:16.601Z,11.20
2019-02-18T12:59:49.008Z,11.30
2019-02-18T13:02:22.332Z,11.30
2019-02-18T13:04:54.312Z,11.30
2019-02-18T13:07:26.788Z,11.30
2019-02-18T13:09:58.926Z,11.30
2019-02-18T13:12:30.446Z,11.30
2019-02-18T13:15:02.684Z,11.30
2019-02-18T13:17:36.609Z,11.20
2019-02-18T13:20:09.083Z,11.10
2019-02-18T13:22:40.847Z,11.00
2019-02-18T13:25:13.104Z,10.90
2019-02-18T13:27:44.964Z,10.90
2019-02-18T13:30:17.555Z,10.90
2019-02-18T13:32:49.548Z,10.90
2019-02-18T13:35:21.618Z,10.90
2019-02-18T13:37:54.236Z,10.90
2019-02-18T13:40:26.560Z,10.90
2019-02-18T13:42:58.752Z,10.90
2019-02-18T13:45:30.614Z,10.90
2019-02-18T13:48:03.543Z,10.80
2019-02-18T13:50:35.862Z,10.80
2019-02-18T13:53:08.124Z,10.80
2019-02-18T13:55:40.058Z,10.80
2019-02-18T13:58:13.162Z,10.90
2019-02-18T14:00:45.307Z,10.90
2019-02-18T14:03:17.043Z,10.90
2019-02-18T14:05:49.257Z,10.90
2019-02-18T14:08:21.008Z,10.90
2019-02-18T14:10:53.410Z,10.90
2019-02-18T14:13:25.485Z,10.80
2019-02-18T14:15:57.572Z,10.80
2019-02-18T14:18:29.940Z,10.70
2019-02-18T14:21:02.437Z,10.70
2019-02-18T14:23:34.434Z,10.60
2019-02-18T14:26:06.996Z,10.60
2019-02-18T14:28:38.810Z,10.50
2019-02-18T14:31:10.998Z,10.60
2019-02-18T14:33:42.918Z,10.50
2019-02-18T14:36:15.083Z,10.50
2019-02-18T14:38:46.946Z,10.40
2019-02-18T14:41:19.452Z,10.40
2019-02-18T14:43:51.210Z,10.40
2019-02-18T14:46:22.978Z,10.40
2019-02-18T14:48:55.380Z,10.40
2019-02-18T14:51:27.461Z,10.40
2019-02-18T14:53:59.836Z,10.30
2019-02-18T14:56:31.794Z,10.30
2019-02-18T14:59:03.644Z,10.30
2019-02-18T15:01:37.573Z,10.20
2019-02-18T15:04:10.238Z,10.20
2019-02-18T15:06:42.239Z,10.10
2019-02-18T15:09:14.711Z,10.10
2019-02-18T15:11:47.659Z,10.00
2019-02-18T15:14:19.598Z,10.00
2019-02-18T15:16:51.367Z,9.90
2019-02-18T15:19:23.574Z,9.90
2019-02-18T15:21:55.182Z,9.80
2019-02-18T15:24:27.060Z,9.70
2019-02-18T15:26:59.738Z,9.70
2019-02-18T15:29:31.958Z,9.60
2019-02-18T15:32:12.603Z,9.50
2019-02-18T15:34:38.091Z,9.50
2019-02-18T15:37:10.392Z,9.40
2019-02-18T15:39:42.424Z,9.30
2019-02-18T15:42:14.635Z,9.30
2019-02-18T15:44:47.068Z,9.20
2019-02-18T15:47:19.172Z,9.10
2019-02-18T15:49:51.698Z,9.10
2019-02-18T15:52:23.788Z,9.00
2019-02-18T15:54:55.918Z,8.90
2019-02-18T15:57:28.005Z,8.90
2019-02-18T15:59:59.778Z,8.90
2019-02-18T16:02:31.982Z,8.80
2019-02-18T16:05:03.731Z,8.80
2019-02-18T16:07:35.698Z,8.80
2019-02-18T16:10:07.926Z,8.70
2019-02-18T16:12:40.080Z,8.70
2019-02-18T16:15:12.033Z,8.70
2019-02-18T16:17:44.290Z,8.60
2019-02-18T16:20:16.268Z,8.60
2019-02-18T16:22:47.814Z,8.50
2019-02-18T16:25:20.900Z,8.50
2019-02-18T16:27:52.610Z,8.40
2019-02-18T16:30:24.900Z,8.40
2019-02-18T16:32:58.131Z,8.40
2019-02-18T16:35:30.492Z,8.40
2019-02-18T16:38:04.209Z,8.30
2019-02-18T16:40:36.308Z,8.30
2019-02-18T16:43:08.175Z,8.30
2019-02-18T16:45:40.239Z,8.30
2019-02-18T16:48:12.997Z,8.20
2019-02-18T16:50:45.224Z,8.20
2019-02-18T16:53:17.339Z,8.20
2019-02-18T16:55:49.268Z,8.20
2019-02-18T16:58:21.688Z,8.20
2019-02-18T17:00:57.771Z,8.20
2019-02-18T17:03:28.853Z,8.20
2019-02-18T17:06:01.359Z,8.10
2019-02-18T17:08:33.579Z,8.10
2019-02-18T17:11:06.138Z,8.00
2019-02-18T17:13:39.214Z,8.00
2019-02-18T17:16:11.016Z,8.00
2019-02-18T17:18:42.976Z,7.90
2019-02-18T17:21:18.387Z,7.90
2019-02-18T17:23:50.600Z,7.90
2019-02-18T17:26:22.416Z,7.90
2019-02-18T17:28:54.184Z,7.80
2019-02-18T17:31:26.112Z,7.80
2019-02-18T17:33:57.946Z,7.80
2019-02-18T17:36:29.620Z,7.80
2019-02-18T17:39:01.571Z,7.80
2019-02-18T17:41:33.598Z,7.70
2019-02-18T17:44:05.736Z,7.70
2019-02-18T17:46:37.729Z,7.70
2019-02-18T17:49:09.806Z,7.60
2019-02-18T17:51:41.666Z,7.60
2019-02-18T17:54:13.902Z,7.60
2019-02-18T17:56:45.856Z,7.60
2019-02-18T17:59:17.742Z,7.50
2019-02-18T18:01:52.024Z,7.50
2019-02-18T18:04:26.571Z,7.40
2019-02-18T18:06:58.616Z,7.40
2019-02-18T18:09:30.964Z,7.30
2019-02-18T18:12:02.677Z,7.30
2019-02-18T18:14:34.821Z,7.20
2019-02-18T18:17:06.630Z,7.20
2019-02-18T18:19:38.426Z,7.10
2019-02-18T18:22:10.326Z,7.10
2019-02-18T18:24:42.527Z,7.00
2019-02-18T18:27:14.506Z,7.00
2019-02-18T18:29:46.174Z,6.90
2019-02-18T18:32:17.924Z,6.90
2019-02-18T18:34:49.895Z,6.80
2019-02-18T18:37:21.690Z,6.80
2019-02-18T18:39:53.759Z,6.80
2019-02-18T18:42:25.502Z,6.70
2019-02-18T18:44:57.340Z,6.70
2019-02-18T18:47:30.210Z,6.70
2019-02-18T18:50:02.198Z,6.70
2019-02-18T18:52:34.371Z,6.70
2019-02-18T18:55:10.742Z,6.70
2019-02-18T18:57:42.451Z,6.70
2019-02-18T19:00:16.968Z,6.70
2019-02-18T19:02:48.982Z,6.70
2019-02-18T19:05:21.718Z,6.70
2019-02-18T19:07:53.784Z,6.60
2019-02-18T19:10:25.810Z,6.60
2019-02-18T19:12:57.484Z,6.60
2019-02-18T19:15:29.154Z,6.60
2019-02-18T19:18:04.519Z,6.50
2019-02-18T19:20:36.302Z,6.50
2019-02-18T19:23:08.057Z,6.40
2019-02-18T19:25:39.994Z,6.40
2019-02-18T19:28:12.216Z,6.30
2019-02-18T19:30:43.776Z,6.30
2019-02-18T19:33:16.176Z,6.20
2019-02-18T19:35:47.802Z,6.10
2019-02-18T19:38:19.583Z,6.10
2019-02-18T19:40:51.746Z,6.10
2019-02-18T19:43:23.591Z,6.10
2019-02-18T19:45:55.397Z,6.00
2019-02-18T19:48:27.136Z,6.00
2019-02-18T19:50:58.982Z,5.90
2019-02-18T19:53:30.731Z,5.90
2019-02-18T19:56:02.588Z,5.90
2019-02-18T19:58:34.472Z,5.80
2019-02-18T20:01:06.341Z,5.70
2019-02-18T20:03:38.196Z,5.70
2019-02-18T20:06:09.913Z,5.70
2019-02-18T20:08:42.363Z,5.60
2019-02-18T20:11:14.126Z,5.60
2019-02-18T20:13:45.917Z,5.60
2019-02-18T20:16:17.708Z,5.50
2019-02-18T20:18:49.346Z,5.50
2019-02-18T20:21:21.176Z,5.50
2019-02-18T20:23:53.004Z,5.50
2019-02-18T20:26:25.216Z,5.40
2019-02-18T20:28:57.940Z,5.40
2019-02-18T20:31:29.545Z,5.40
2019-02-18T20:34:02.455Z,5.30
2019-02-18T20:36:34.654Z,5.30
2019-02-18T20:39:07.656Z,5.20
2019-02-18T20:41:39.718Z,5.20
2019-02-18T20:44:13.688Z,5.20
2019-02-18T20:46:45.544Z,5.20
2019-02-18T20:49:18.402Z,5.10
2019-02-18T20:51:50.618Z,5.10
2019-02-18T20:54:22.892Z,5.10
2019-02-18T20:56:54.672Z,5.00
2019-02-18T20:59:26.927Z,5.00
2019-02-18T21:01:58.965Z,5.00
2019-02-18T21:04:31.306Z,5.00
2019-02-18T21:07:03.442Z,5.00
2019-02-18T21:09:35.267Z,4.90
2019-02-18T21:12:07.007Z,4.90
2019-02-18T21:14:41.006Z,4.80
2019-02-18T21:17:13.092Z,4.80
2019-02-18T21:19:44.988Z,4.80
2019-02-18T21:22:16.818Z,4.70
2019-02-18T21:24:48.968Z,4.70
2019-02-18T21:27:20.727Z,4.60
2019-02-18T21:29:52.348Z,4.60
2019-02-18T21:32:24.175Z,4.60
2019-02-18T21:34:56.098Z,4.50
2019-02-18T21:37:27.852Z,4.50
2019-02-18T21:40:01.671Z,4.50
2019-02-18T21:42:33.796Z,4.40
2019-02-18T21:45:05.608Z,4.40
2019-02-18T21:47:40.755Z,4.40
2019-02-18T21:50:12.722Z,4.30
2019-02-18T21:52:44.704Z,4.30
2019-02-18T21:55:16.671Z,4.30
2019-02-18T21:57:48.372Z,4.30
2019-02-18T22:00:24.767Z,4.20
2019-02-18T22:02:56.651Z,4.20
2019-02-18T22:05:28.876Z,4.20
2019-02-18T22:08:00.806Z,4.20
2019-02-18T22:10:32.918Z,4.10
2019-02-18T22:13:04.718Z,4.10
2019-02-18T22:15:37.328Z,4.10
2019-02-18T22:18:08.942Z,4.10
2019-02-18T22:20:40.650Z,4.00
2019-02-18T22:23:12.343Z,4.00
2019-02-18T22:25:44.037Z,4.00
2019-02-18T22:28:16.904Z,4.00
2019-02-18T22:30:53.931Z,3.90
2019-02-18T22:33:25.904Z,3.90
2019-02-18T22:35:57.703Z,3.90
2019-02-18T22:38:29.344Z,3.90
2019-02-18T22:41:01.165Z,3.80
2019-02-18T22:43:35.529Z,3.80
2019-02-18T22:46:06.953Z,3.80
2019-02-18T22:48:38.802Z,3.80
2019-02-18T22:51:14.404Z,3.80
2019-02-18T22:53:46.622Z,3.80
2019-02-18T22:56:21.377Z,3.70
2019-02-18T22:58:54.365Z,3.70
2019-02-18T23:01:26.712Z,3.70
2019-02-18T23:04:00.725Z,3.70
2019-02-18T23:06:32.673Z,3.60
2019-02-18T23:09:13.657Z,3.60
2019-02-18T23:11:47.179Z,3.60
2019-02-18T23:14:22.901Z,3.60
2019-02-18T23:16:54.720Z,3.50
2019-02-18T23:19:26.340Z,3.50
2019-02-18T23:21:57.506Z,3.50
2019-02-18T23:24:29.175Z,3.50
2019-02-18T23:27:00.826Z,3.50
2019-02-18T23:29:33.249Z,3.40
2019-02-18T23:32:04.738Z,3.40
2019-02-18T23:34:36.421Z,3.40
2019-02-18T23:37:09.504Z,3.30
2019-02-18T23:39:41.775Z,3.30
2019-02-18T23:42:14.350Z,3.30
2019-02-18T23:44:46.290Z,3.30
2019-02-18T23:47:21.504Z,3.20
2019-02-18T23:49:54.081Z,3.20
2019-02-18T23:52:26.950Z,3.20
2019-02-18T23:54:58.705Z,3.10
2019-02-18T23:57:30.641Z,3.10
